Waringstown, United Kingdom
Current Conditions -  °F | °C
As of 3:50 AM on Thursday 18 Dec 2014 (Local Time) from EGAA Reporting Station
Broken Clouds Broken Clouds  
Wind Chill: 50°   Ceiling: 2200
Heat Index: 50°   Visibility: 5mi
Dew Point: 50°   Wind: 15mph
Humidity: 100%   Direction: 220°SW
Pressure: 29.5"   Gusts: NA
Location:  54.43°N, 6.3°W
Report Text: EGAA 180350Z 22013KT 8000 SCT004 BKN022 10/10 Q0999
Loading
Personal Weather Stations






























Interactive Weather Map New forecast layout! Learn more

10-Day Weather Forecast

Advertisements
Track Severe Weather on mobile